sensor_id;sensor_type;location;lat;lon;timestamp;pressure;altitude;pressure_sealevel;temperature;humidity
3096;BME280;1558;42.700;23.360;2022-07-10T00:02:26;95226.16;;;16.89;100.00
3096;BME280;1558;42.700;23.360;2022-07-10T00:04:54;95221.44;;;16.86;100.00
3096;BME280;1558;42.700;23.360;2022-07-10T00:07:22;95217.22;;;16.92;100.00
3096;BME280;1558;42.700;23.360;2022-07-10T00:09:50;95216.44;;;16.92;100.00
3096;BME280;1558;42.700;23.360;2022-07-10T00:12:18;95223.84;;;16.91;100.00
3096;BME280;1558;42.700;23.360;2022-07-10T00:14:46;95203.88;;;16.80;100.00
3096;BME280;1558;42.700;23.360;2022-07-10T00:17:14;95216.81;;;16.90;100.00
3096;BME280;1558;42.700;23.360;2022-07-10T00:19:43;95167.03;;;16.57;100.00
3096;BME280;1558;42.700;23.360;2022-07-10T00:22:11;95205.00;;;16.79;100.00
3096;BME280;1558;42.700;23.360;2022-07-10T00:24:40;95212.03;;;16.80;100.00
3096;BME280;1558;42.700;23.360;2022-07-10T00:27:07;95204.28;;;16.82;100.00
3096;BME280;1558;42.700;23.360;2022-07-10T00:29:35;95209.72;;;16.82;100.00
3096;BME280;1558;42.700;23.360;2022-07-10T00:32:04;95199.56;;;16.79;100.00
3096;BME280;1558;42.700;23.360;2022-07-10T00:34:32;95199.50;;;16.72;100.00
3096;BME280;1558;42.700;23.360;2022-07-10T00:37:01;95200.22;;;16.69;100.00
3096;BME280;1558;42.700;23.360;2022-07-10T00:39:29;95201.81;;;16.70;100.00
3096;BME280;1558;42.700;23.360;2022-07-10T00:42:06;95177.16;;;16.60;100.00
3096;BME280;1558;42.700;23.360;2022-07-10T00:44:34;95179.88;;;16.60;100.00
3096;BME280;1558;42.700;23.360;2022-07-10T00:47:03;95199.09;;;16.70;100.00
3096;BME280;1558;42.700;23.360;2022-07-10T00:49:32;95144.69;;;16.44;100.00
3096;BME280;1558;42.700;23.360;2022-07-10T00:52:05;95132.78;;;16.26;100.00
3096;BME280;1558;42.700;23.360;2022-07-10T00:54:34;95180.66;;;16.57;100.00
3096;BME280;1558;42.700;23.360;2022-07-10T00:57:04;95188.38;;;16.55;100.00
3096;BME280;1558;42.700;23.360;2022-07-10T00:59:33;95165.69;;;16.44;100.00
3096;BME280;1558;42.700;23.360;2022-07-10T01:02:02;95183.72;;;16.52;100.00
3096;BME280;1558;42.700;23.360;2022-07-10T01:04:30;95178.59;;;16.50;100.00
3096;BME280;1558;42.700;23.360;2022-07-10T01:06:58;95189.84;;;16.49;100.00
3096;BME280;1558;42.700;23.360;2022-07-10T01:09:28;95185.13;;;16.46;100.00
3096;BME280;1558;42.700;23.360;2022-07-10T01:11:56;95167.84;;;16.31;100.00
3096;BME280;1558;42.700;23.360;2022-07-10T01:14:27;95192.13;;;16.43;100.00
3096;BME280;1558;42.700;23.360;2022-07-10T01:16:56;95176.97;;;16.46;100.00
3096;BME280;1558;42.700;23.360;2022-07-10T01:19:24;95175.84;;;16.47;100.00
3096;BME280;1558;42.700;23.360;2022-07-10T01:21:53;95176.63;;;16.47;100.00
3096;BME280;1558;42.700;23.360;2022-07-10T01:24:21;95178.66;;;16.54;100.00
3096;BME280;1558;42.700;23.360;2022-07-10T01:26:49;95178.59;;;16.50;100.00
3096;BME280;1558;42.700;23.360;2022-07-10T01:29:17;95131.56;;;16.20;100.00
3096;BME280;1558;42.700;23.360;2022-07-10T01:31:45;95171.94;;;16.48;100.00
3096;BME280;1558;42.700;23.360;2022-07-10T01:34:18;95162.50;;;16.38;100.00
3096;BME280;1558;42.700;23.360;2022-07-10T01:36:46;95161.03;;;16.44;100.00
3096;BME280;1558;42.700;23.360;2022-07-10T01:39:16;95159.03;;;16.41;100.00
3096;BME280;1558;42.700;23.360;2022-07-10T01:41:44;95157.91;;;16.46;100.00
3096;BME280;1558;42.700;23.360;2022-07-10T01:44:12;95154.88;;;16.51;100.00
3096;BME280;1558;42.700;23.360;2022-07-10T01:46:43;95156.78;;;16.50;100.00
3096;BME280;1558;42.700;23.360;2022-07-10T01:49:11;95154.84;;;16.47;100.00
3096;BME280;1558;42.700;23.360;2022-07-10T01:51:39;95139.09;;;16.34;100.00
3096;BME280;1558;42.700;23.360;2022-07-10T01:54:07;95153.97;;;16.40;100.00
3096;BME280;1558;42.700;23.360;2022-07-10T01:56:37;95143.81;;;16.37;100.00
3096;BME280;1558;42.700;23.360;2022-07-10T01:59:05;95147.97;;;16.27;100.00
3096;BME280;1558;42.700;23.360;2022-07-10T02:01:34;95146.06;;;16.31;100.00
3096;BME280;1558;42.700;23.360;2022-07-10T02:04:03;95143.69;;;16.26;100.00
3096;BME280;1558;42.700;23.360;2022-07-10T02:06:57;95150.75;;;16.31;100.00
3096;BME280;1558;42.700;23.360;2022-07-10T02:09:25;95147.66;;;16.32;100.00
3096;BME280;1558;42.700;23.360;2022-07-10T02:11:54;95156.16;;;16.27;100.00
3096;BME280;1558;42.700;23.360;2022-07-10T02:14:22;95151.41;;;16.20;100.00
3096;BME280;1558;42.700;23.360;2022-07-10T02:16:50;95135.66;;;16.07;100.00
3096;BME280;1558;42.700;23.360;2022-07-10T02:19:18;95151.31;;;16.13;100.00
3096;BME280;1558;42.700;23.360;2022-07-10T02:21:46;95152.09;;;16.14;100.00
3096;BME280;1558;42.700;23.360;2022-07-10T02:24:14;95148.53;;;16.10;100.00
3096;BME280;1558;42.700;23.360;2022-07-10T02:26:42;95148.19;;;16.11;100.00
3096;BME280;1558;42.700;23.360;2022-07-10T02:29:11;95141.09;;;16.07;100.00
3096;BME280;1558;42.700;23.360;2022-07-10T02:31:39;95145.00;;;16.06;100.00
3096;BME280;1558;42.700;23.360;2022-07-10T02:34:08;95135.25;;;16.05;100.00
3096;BME280;1558;42.700;23.360;2022-07-10T02:36:36;95139.16;;;16.04;100.00
3096;BME280;1558;42.700;23.360;2022-07-10T02:39:05;95135.63;;;16.03;100.00
3096;BME280;1558;42.700;23.360;2022-07-10T02:41:33;95142.22;;;16.02;100.00
3096;BME280;1558;42.700;23.360;2022-07-10T02:44:01;95141.41;;;15.98;100.00
3096;BME280;1558;42.700;23.360;2022-07-10T02:46:30;95145.63;;;15.96;100.00
3096;BME280;1558;42.700;23.360;2022-07-10T02:48:58;95148.69;;;15.91;100.00
3096;BME280;1558;42.700;23.360;2022-07-10T02:51:26;95146.38;;;15.93;100.00
3096;BME280;1558;42.700;23.360;2022-07-10T02:53:56;95146.38;;;15.93;100.00
3096;BME280;1558;42.700;23.360;2022-07-10T02:56:24;95149.88;;;15.93;100.00
3096;BME280;1558;42.700;23.360;2022-07-10T02:58:51;95153.38;;;15.94;100.00
3096;BME280;1558;42.700;23.360;2022-07-10T03:01:19;95122.72;;;15.67;100.00
3096;BME280;1558;42.700;23.360;2022-07-10T03:03:49;95162.69;;;15.93;100.00
3096;BME280;1558;42.700;23.360;2022-07-10T03:06:17;95150.16;;;15.85;100.00
3096;BME280;1558;42.700;23.360;2022-07-10T03:08:45;95167.72;;;15.91;100.00
3096;BME280;1558;42.700;23.360;2022-07-10T03:11:13;95167.00;;;15.94;100.00
3096;BME280;1558;42.700;23.360;2022-07-10T03:13:41;95169.72;;;15.94;100.00
3096;BME280;1558;42.700;23.360;2022-07-10T03:16:09;95168.91;;;15.93;100.00
3096;BME280;1558;42.700;23.360;2022-07-10T03:18:37;95167.41;;;15.96;100.00
3096;BME280;1558;42.700;23.360;2022-07-10T03:21:07;95168.22;;;16.00;100.00
3096;BME280;1558;42.700;23.360;2022-07-10T03:23:35;95172.84;;;15.96;100.00
3096;BME280;1558;42.700;23.360;2022-07-10T03:26:02;95178.34;;;15.99;100.00
3096;BME280;1558;42.700;23.360;2022-07-10T03:28:30;95180.69;;;16.01;100.00
3096;BME280;1558;42.700;23.360;2022-07-10T03:30:58;95179.19;;;16.07;100.00
3096;BME280;1558;42.700;23.360;2022-07-10T03:33:26;95176.16;;;16.12;100.00
3096;BME280;1558;42.700;23.360;2022-07-10T03:35:55;95156.66;;;16.06;100.00
3096;BME280;1558;42.700;23.360;2022-07-10T03:38:24;95171.59;;;16.19;100.00
3096;BME280;1558;42.700;23.360;2022-07-10T03:40:52;95163.09;;;16.21;100.00
3096;BME280;1558;42.700;23.360;2022-07-10T03:43:20;95173.19;;;16.20;100.00
3096;BME280;1558;42.700;23.360;2022-07-10T03:45:48;95175.53;;;16.22;100.00
3096;BME280;1558;42.700;23.360;2022-07-10T03:48:16;95170.13;;;16.25;100.00
3096;BME280;1558;42.700;23.360;2022-07-10T03:50:44;95168.63;;;16.28;100.00
3096;BME280;1558;42.700;23.360;2022-07-10T03:53:12;95155.81;;;16.32;100.00
3096;BME280;1558;42.700;23.360;2022-07-10T03:55:41;95172.56;;;16.34;100.00
3096;BME280;1558;42.700;23.360;2022-07-10T03:58:09;95157.81;;;16.35;100.00
3096;BME280;1558;42.700;23.360;2022-07-10T04:00:36;95164.44;;;16.38;100.00
3096;BME280;1558;42.700;23.360;2022-07-10T04:03:06;95155.94;;;16.43;100.00
3096;BME280;1558;42.700;23.360;2022-07-10T04:05:35;95158.72;;;16.50;100.00
3096;BME280;1558;42.700;23.360;2022-07-10T04:08:04;95116.50;;;16.30;100.00
3096;BME280;1558;42.700;23.360;2022-07-10T04:10:32;95153.06;;;16.62;100.00
3096;BME280;1558;42.700;23.360;2022-07-10T04:13:01;95155.09;;;16.68;100.00
3096;BME280;1558;42.700;23.360;2022-07-10T04:15:29;95158.63;;;16.72;100.00
3096;BME280;1558;42.700;23.360;2022-07-10T04:17:57;95149.03;;;16.85;100.00
3096;BME280;1558;42.700;23.360;2022-07-10T04:20:26;95151.00;;;16.88;100.00
3096;BME280;1558;42.700;23.360;2022-07-10T04:22:54;95153.00;;;16.91;100.00
3096;BME280;1558;42.700;23.360;2022-07-10T04:25:21;95100.91;;;16.60;100.00
3096;BME280;1558;42.700;23.360;2022-07-10T04:27:49;95145.28;;;17.01;100.00
3096;BME280;1558;42.700;23.360;2022-07-10T04:30:19;95148.06;;;17.04;100.00
3096;BME280;1558;42.700;23.360;2022-07-10T04:32:47;95150.09;;;17.18;100.00
3096;BME280;1558;42.700;23.360;2022-07-10T04:35:15;95158.72;;;17.23;100.00
3096;BME280;1558;42.700;23.360;2022-07-10T04:37:43;95151.38;;;17.31;100.00
3096;BME280;1558;42.700;23.360;2022-07-10T04:40:11;95122.84;;;17.18;100.00
3096;BME280;1558;42.700;23.360;2022-07-10T04:42:39;95148.00;;;17.44;100.00
3096;BME280;1558;42.700;23.360;2022-07-10T04:45:07;95151.22;;;17.57;100.00
3096;BME280;1558;42.700;23.360;2022-07-10T04:47:37;95071.38;;;17.09;100.00
3096;BME280;1558;42.700;23.360;2022-07-10T04:50:06;95144.59;;;17.58;100.00
3096;BME280;1558;42.700;23.360;2022-07-10T04:52:34;95148.97;;;17.66;100.00
3096;BME280;1558;42.700;23.360;2022-07-10T04:55:03;95145.44;;;17.69;100.00
3096;BME280;1558;42.700;23.360;2022-07-10T04:57:31;95152.94;;;17.79;100.00
3096;BME280;1558;42.700;23.360;2022-07-10T04:59:59;95145.94;;;17.85;100.00
3096;BME280;1558;42.700;23.360;2022-07-10T05:02:27;95126.81;;;17.85;100.00
3096;BME280;1558;42.700;23.360;2022-07-10T05:04:56;95127.66;;;17.89;100.00
3096;BME280;1558;42.700;23.360;2022-07-10T05:07:24;95149.19;;;18.12;100.00
3096;BME280;1558;42.700;23.360;2022-07-10T05:09:52;95142.97;;;18.18;100.00
3096;BME280;1558;42.700;23.360;2022-07-10T05:12:20;95142.28;;;18.36;100.00
3096;BME280;1558;42.700;23.360;2022-07-10T05:14:48;95144.75;;;18.62;100.00
3096;BME280;1558;42.700;23.360;2022-07-10T05:17:16;95132.69;;;18.80;100.00
3096;BME280;1558;42.700;23.360;2022-07-10T05:19:44;95142.09;;;19.01;100.00
3096;BME280;1558;42.700;23.360;2022-07-10T05:22:13;95140.16;;;19.22;100.00
3096;BME280;1558;42.700;23.360;2022-07-10T05:24:41;95130.03;;;19.47;100.00
3096;BME280;1558;42.700;23.360;2022-07-10T05:27:09;95124.56;;;19.51;100.00
3096;BME280;1558;42.700;23.360;2022-07-10T05:29:37;95138.25;;;19.44;100.00
3096;BME280;1558;42.700;23.360;2022-07-10T05:32:05;95135.44;;;19.83;100.00
3096;BME280;1558;42.700;23.360;2022-07-10T05:34:33;95129.97;;;19.86;100.00
3096;BME280;1558;42.700;23.360;2022-07-10T05:37:01;95131.94;;;19.86;100.00
3096;BME280;1558;42.700;23.360;2022-07-10T05:39:30;95133.50;;;19.80;100.00
3096;BME280;1558;42.700;23.360;2022-07-10T05:41:58;95125.59;;;20.10;100.00
3096;BME280;1558;42.700;23.360;2022-07-10T05:44:26;95133.94;;;20.75;100.00
3096;BME280;1558;42.700;23.360;2022-07-10T05:46:54;95131.38;;;21.64;98.10
3096;BME280;1558;42.700;23.360;2022-07-10T05:49:22;95129.00;;;21.66;94.45
3096;BME280;1558;42.700;23.360;2022-07-10T05:51:51;95127.13;;;22.00;92.39
3096;BME280;1558;42.700;23.360;2022-07-10T05:54:18;95058.53;;;21.52;89.08
3096;BME280;1558;42.700;23.360;2022-07-10T05:56:48;95137.47;;;21.82;90.09
3096;BME280;1558;42.700;23.360;2022-07-10T05:59:17;95133.03;;;21.99;87.11
3096;BME280;1558;42.700;23.360;2022-07-10T06:01:44;95129.69;;;21.33;89.79
3096;BME280;1558;42.700;23.360;2022-07-10T06:04:12;95140.94;;;21.93;89.85
3096;BME280;1558;42.700;23.360;2022-07-10T06:06:40;95140.34;;;22.12;86.67
3096;BME280;1558;42.700;23.360;2022-07-10T06:09:09;95134.97;;;22.02;86.81
3096;BME280;1558;42.700;23.360;2022-07-10T06:11:36;95133.81;;;22.37;87.02
3096;BME280;1558;42.700;23.360;2022-07-10T06:14:09;95138.41;;;22.09;84.84
3096;BME280;1558;42.700;23.360;2022-07-10T06:16:37;95130.47;;;22.18;86.28
3096;BME280;1558;42.700;23.360;2022-07-10T06:19:05;95136.63;;;22.30;86.61
3096;BME280;1558;42.700;23.360;2022-07-10T06:21:33;95132.50;;;22.45;82.45
3096;BME280;1558;42.700;23.360;2022-07-10T06:24:01;95124.59;;;22.80;82.18
3096;BME280;1558;42.700;23.360;2022-07-10T06:26:29;95126.44;;;23.17;80.76
3096;BME280;1558;42.700;23.360;2022-07-10T06:28:57;95030.69;;;22.52;77.38
3096;BME280;1558;42.700;23.360;2022-07-10T06:31:26;95123.88;;;23.30;76.47
3096;BME280;1558;42.700;23.360;2022-07-10T06:33:55;95091.09;;;22.89;76.93
3096;BME280;1558;42.700;23.360;2022-07-10T06:36:23;95121.63;;;23.25;77.18
3096;BME280;1558;42.700;23.360;2022-07-10T06:38:56;95128.31;;;23.50;76.05
3096;BME280;1558;42.700;23.360;2022-07-10T06:41:24;95128.06;;;23.65;74.89
3096;BME280;1558;42.700;23.360;2022-07-10T06:43:52;95122.44;;;23.72;74.27
3096;BME280;1558;42.700;23.360;2022-07-10T06:46:19;95120.16;;;23.67;74.08
3096;BME280;1558;42.700;23.360;2022-07-10T06:48:49;95127.16;;;23.94;73.51
3096;BME280;1558;42.700;23.360;2022-07-10T06:51:16;95114.47;;;24.20;72.73
3096;BME280;1558;42.700;23.360;2022-07-10T06:53:44;95097.13;;;24.98;72.11
3096;BME280;1558;42.700;23.360;2022-07-10T06:56:13;95103.38;;;24.63;69.11
3096;BME280;1558;42.700;23.360;2022-07-10T06:58:42;95111.44;;;24.54;69.96
3096;BME280;1558;42.700;23.360;2022-07-10T07:01:10;95097.94;;;24.59;68.91
3096;BME280;1558;42.700;23.360;2022-07-10T07:03:38;95110.38;;;24.67;67.22
3096;BME280;1558;42.700;23.360;2022-07-10T07:06:08;95108.03;;;24.66;68.94
3096;BME280;1558;42.700;23.360;2022-07-10T07:08:37;95109.16;;;25.24;67.09
3096;BME280;1558;42.700;23.360;2022-07-10T07:11:05;95112.41;;;25.19;65.69
3096;BME280;1558;42.700;23.360;2022-07-10T07:13:33;95103.44;;;25.31;65.80
3096;BME280;1558;42.700;23.360;2022-07-10T07:16:01;95097.28;;;24.71;66.61
3096;BME280;1558;42.700;23.360;2022-07-10T07:18:33;95110.34;;;24.32;68.38
3096;BME280;1558;42.700;23.360;2022-07-10T07:21:03;95116.22;;;23.68;71.83
3096;BME280;1558;42.700;23.360;2022-07-10T07:23:49;95100.00;;;23.50;72.38
3096;BME280;1558;42.700;23.360;2022-07-10T07:26:17;95007.41;;;22.60;72.11
3096;BME280;1558;42.700;23.360;2022-07-10T07:28:45;95115.31;;;23.74;71.88
3096;BME280;1558;42.700;23.360;2022-07-10T07:31:13;95110.38;;;24.08;72.09
3096;BME280;1558;42.700;23.360;2022-07-10T07:33:44;95110.38;;;25.03;68.83
3096;BME280;1558;42.700;23.360;2022-07-10T07:36:12;95114.41;;;25.34;68.18
3096;BME280;1558;42.700;23.360;2022-07-10T07:38:40;95103.25;;;26.02;65.63
3096;BME280;1558;42.700;23.360;2022-07-10T07:41:10;95107.06;;;25.92;64.37
3096;BME280;1558;42.700;23.360;2022-07-10T07:43:38;95104.44;;;26.17;63.72
3096;BME280;1558;42.700;23.360;2022-07-10T07:46:06;95104.47;;;26.59;62.39
3096;BME280;1558;42.700;23.360;2022-07-10T07:48:34;95086.09;;;26.65;60.93
3096;BME280;1558;42.700;23.360;2022-07-10T07:51:03;95091.47;;;27.22;60.53
3096;BME280;1558;42.700;23.360;2022-07-10T07:53:31;95095.09;;;27.70;57.85
3096;BME280;1558;42.700;23.360;2022-07-10T07:55:59;95089.31;;;27.77;54.85
3096;BME280;1558;42.700;23.360;2022-07-10T07:58:29;95085.97;;;27.47;56.23
3096;BME280;1558;42.700;23.360;2022-07-10T08:00:58;95091.41;;;26.59;56.89
3096;BME280;1558;42.700;23.360;2022-07-10T08:03:26;95076.06;;;25.20;59.40
3096;BME280;1558;42.700;23.360;2022-07-10T08:06:14;95087.03;;;25.08;61.06
3096;BME280;1558;42.700;23.360;2022-07-10T08:08:42;95036.28;;;25.66;59.80
3096;BME280;1558;42.700;23.360;2022-07-10T08:11:11;95064.34;;;26.38;56.87
3096;BME280;1558;42.700;23.360;2022-07-10T08:13:40;95088.19;;;26.61;56.13
3096;BME280;1558;42.700;23.360;2022-07-10T08:16:09;95090.59;;;26.88;56.02
3096;BME280;1558;42.700;23.360;2022-07-10T08:18:37;95049.50;;;27.11;56.03
3096;BME280;1558;42.700;23.360;2022-07-10T08:21:06;94978.59;;;27.01;53.45
3096;BME280;1558;42.700;23.360;2022-07-10T08:23:36;94770.13;;;26.19;53.16
3096;BME280;1558;42.700;23.360;2022-07-10T08:26:04;95028.97;;;26.46;53.75
3096;BME280;1558;42.700;23.360;2022-07-10T08:28:32;95090.66;;;25.21;58.39
3096;BME280;1558;42.700;23.360;2022-07-10T08:31:01;95087.72;;;24.76;59.87
3096;BME280;1558;42.700;23.360;2022-07-10T08:33:29;95086.72;;;24.31;60.51
3096;BME280;1558;42.700;23.360;2022-07-10T08:35:57;95091.53;;;25.34;59.68
3096;BME280;1558;42.700;23.360;2022-07-10T08:38:46;95090.34;;;25.67;58.14
3096;BME280;1558;42.700;23.360;2022-07-10T08:41:15;95080.06;;;25.19;57.85
3096;BME280;1558;42.700;23.360;2022-07-10T08:43:45;95087.50;;;24.86;57.79
3096;BME280;1558;42.700;23.360;2022-07-10T08:46:14;95089.31;;;24.77;59.62
3096;BME280;1558;42.700;23.360;2022-07-10T08:48:47;95067.94;;;24.61;59.94
3096;BME280;1558;42.700;23.360;2022-07-10T08:51:23;95078.31;;;24.73;59.30
3096;BME280;1558;42.700;23.360;2022-07-10T08:53:53;95080.84;;;26.42;56.54
3096;BME280;1558;42.700;23.360;2022-07-10T08:56:22;95080.28;;;27.01;55.16
3096;BME280;1558;42.700;23.360;2022-07-10T08:58:52;95076.00;;;26.46;54.97
3096;BME280;1558;42.700;23.360;2022-07-10T09:01:23;95069.56;;;25.91;55.99
3096;BME280;1558;42.700;23.360;2022-07-10T09:03:51;95064.84;;;24.95;57.79
3096;BME280;1558;42.700;23.360;2022-07-10T09:06:19;95072.91;;;24.50;58.80
3096;BME280;1558;42.700;23.360;2022-07-10T09:09:02;95026.75;;;25.83;58.28
3096;BME280;1558;42.700;23.360;2022-07-10T09:11:30;95066.31;;;27.29;53.32
3096;BME280;1558;42.700;23.360;2022-07-10T09:14:00;95064.41;;;27.64;51.70
3096;BME280;1558;42.700;23.360;2022-07-10T09:16:32;95026.72;;;28.44;50.70
3096;BME280;1558;42.700;23.360;2022-07-10T09:19:15;95068.78;;;29.17;48.04
3096;BME280;1558;42.700;23.360;2022-07-10T09:21:44;95052.88;;;28.87;46.90
3096;BME280;1558;42.700;23.360;2022-07-10T09:24:12;95028.47;;;28.07;48.10
3096;BME280;1558;42.700;23.360;2022-07-10T09:26:41;95020.09;;;26.38;51.04
3096;BME280;1558;42.700;23.360;2022-07-10T09:29:10;95058.34;;;25.82;53.50
3096;BME280;1558;42.700;23.360;2022-07-10T09:31:50;95068.06;;;25.10;55.14
3096;BME280;1558;42.700;23.360;2022-07-10T09:34:34;95067.78;;;24.88;56.21
3096;BME280;1558;42.700;23.360;2022-07-10T09:37:17;95005.91;;;24.14;56.88
3096;BME280;1558;42.700;23.360;2022-07-10T09:39:53;94954.03;;;23.89;57.53
3096;BME280;1558;42.700;23.360;2022-07-10T09:42:32;95052.75;;;26.56;54.48
3096;BME280;1558;42.700;23.360;2022-07-10T09:45:21;95019.16;;;27.67;50.05
3096;BME280;1558;42.700;23.360;2022-07-10T09:47:57;95041.91;;;27.96;48.78
3096;BME280;1558;42.700;23.360;2022-07-10T09:50:30;94948.53;;;27.37;48.42
3096;BME280;1558;42.700;23.360;2022-07-10T09:53:01;95056.72;;;27.81;48.29
3096;BME280;1558;42.700;23.360;2022-07-10T09:55:31;95051.00;;;28.31;48.25
3096;BME280;1558;42.700;23.360;2022-07-10T09:58:00;94961.53;;;28.27;46.51
3096;BME280;1558;42.700;23.360;2022-07-10T10:00:30;94946.09;;;28.48;46.04
3096;BME280;1558;42.700;23.360;2022-07-10T10:03:01;94990.25;;;29.43;45.26
3096;BME280;1558;42.700;23.360;2022-07-10T10:05:35;95041.50;;;30.09;44.74
3096;BME280;1558;42.700;23.360;2022-07-10T10:08:11;94980.63;;;28.77;45.14
3096;BME280;1558;42.700;23.360;2022-07-10T10:10:44;95023.47;;;27.21;46.78
3096;BME280;1558;42.700;23.360;2022-07-10T10:13:16;95040.84;;;26.30;49.00
3096;BME280;1558;42.700;23.360;2022-07-10T10:15:47;95040.19;;;25.97;50.54
3096;BME280;1558;42.700;23.360;2022-07-10T10:18:18;95032.41;;;27.25;50.28
3096;BME280;1558;42.700;23.360;2022-07-10T10:20:47;95026.28;;;28.76;46.95
3096;BME280;1558;42.700;23.360;2022-07-10T10:23:16;95037.38;;;29.38;44.88
3096;BME280;1558;42.700;23.360;2022-07-10T10:25:47;94977.78;;;27.38;45.58
3096;BME280;1558;42.700;23.360;2022-07-10T10:28:16;94971.25;;;27.20;46.70
3096;BME280;1558;42.700;23.360;2022-07-10T10:30:48;94962.91;;;26.85;47.72
3096;BME280;1558;42.700;23.360;2022-07-10T10:33:45;95016.31;;;26.45;49.16
3096;BME280;1558;42.700;23.360;2022-07-10T10:36:44;95025.78;;;25.29;51.39
3096;BME280;1558;42.700;23.360;2022-07-10T10:39:14;94930.22;;;24.35;53.55
3096;BME280;1558;42.700;23.360;2022-07-10T10:41:47;95012.59;;;24.68;54.42
3096;BME280;1558;42.700;23.360;2022-07-10T10:44:25;95023.34;;;24.82;53.42
3096;BME280;1558;42.700;23.360;2022-07-10T10:46:58;95020.53;;;24.66;54.30
3096;BME280;1558;42.700;23.360;2022-07-10T10:49:53;95004.47;;;24.61;56.43
3096;BME280;1558;42.700;23.360;2022-07-10T10:52:23;95027.84;;;24.93;57.11
3096;BME280;1558;42.700;23.360;2022-07-10T10:55:07;94712.28;;;23.06;55.20
3096;BME280;1558;42.700;23.360;2022-07-10T10:57:42;95010.91;;;25.39;54.46
3096;BME280;1558;42.700;23.360;2022-07-10T11:00:32;95000.94;;;25.45;52.76
3096;BME280;1558;42.700;23.360;2022-07-10T11:03:17;94954.34;;;24.99;53.13
3096;BME280;1558;42.700;23.360;2022-07-10T11:05:48;94958.28;;;25.30;52.40
3096;BME280;1558;42.700;23.360;2022-07-10T11:08:36;94998.84;;;26.06;52.15
3096;BME280;1558;42.700;23.360;2022-07-10T11:11:39;94997.69;;;25.91;52.77
3096;BME280;1558;42.700;23.360;2022-07-10T11:14:10;94951.34;;;25.38;53.65
3096;BME280;1558;42.700;23.360;2022-07-10T11:16:46;95008.47;;;25.73;53.98
3096;BME280;1558;42.700;23.360;2022-07-10T11:19:24;95010.78;;;25.75;53.76
3096;BME280;1558;42.700;23.360;2022-07-10T11:22:03;94972.78;;;25.50;54.34
3096;BME280;1558;42.700;23.360;2022-07-10T11:24:42;95002.06;;;25.76;53.45
3096;BME280;1558;42.700;23.360;2022-07-10T11:27:28;94946.91;;;25.12;53.33
3096;BME280;1558;42.700;23.360;2022-07-10T11:29:58;94935.63;;;24.90;54.43
3096;BME280;1558;42.700;23.360;2022-07-10T11:32:27;94948.91;;;24.95;53.02
3096;BME280;1558;42.700;23.360;2022-07-10T11:34:56;95002.97;;;25.25;53.05
3096;BME280;1558;42.700;23.360;2022-07-10T11:37:26;94941.78;;;24.81;51.75
3096;BME280;1558;42.700;23.360;2022-07-10T11:40:10;94996.34;;;25.22;51.97
3096;BME280;1558;42.700;23.360;2022-07-10T11:42:56;95000.75;;;25.20;51.30
3096;BME280;1558;42.700;23.360;2022-07-10T11:45:27;94894.47;;;24.31;51.65
3096;BME280;1558;42.700;23.360;2022-07-10T11:47:57;94957.84;;;24.51;52.37
3096;BME280;1558;42.700;23.360;2022-07-10T11:50:26;95001.94;;;24.86;53.76
3096;BME280;1558;42.700;23.360;2022-07-10T11:52:56;94932.47;;;24.56;54.04
3096;BME280;1558;42.700;23.360;2022-07-10T11:55:26;94898.41;;;24.30;53.54
3096;BME280;1558;42.700;23.360;2022-07-10T11:57:59;94833.75;;;23.99;53.41
3096;BME280;1558;42.700;23.360;2022-07-10T12:00:30;94751.56;;;23.94;52.24
3096;BME280;1558;42.700;23.360;2022-07-10T12:03:16;94946.84;;;26.55;50.08
3096;BME280;1558;42.700;23.360;2022-07-10T12:05:45;94933.53;;;25.84;50.30
3096;BME280;1558;42.700;23.360;2022-07-10T12:08:14;94999.63;;;25.78;51.35
3096;BME280;1558;42.700;23.360;2022-07-10T12:10:43;94972.41;;;25.32;52.44
3096;BME280;1558;42.700;23.360;2022-07-10T12:13:13;94990.47;;;25.20;51.90
3096;BME280;1558;42.700;23.360;2022-07-10T12:15:43;94960.53;;;24.70;52.86
3096;BME280;1558;42.700;23.360;2022-07-10T12:18:16;94741.53;;;23.35;54.02
3096;BME280;1558;42.700;23.360;2022-07-10T12:20:45;94983.56;;;25.28;53.85
3096;BME280;1558;42.700;23.360;2022-07-10T12:23:16;95004.50;;;25.58;51.70
3096;BME280;1558;42.700;23.360;2022-07-10T12:25:46;94982.72;;;25.31;51.49
3096;BME280;1558;42.700;23.360;2022-07-10T12:28:16;94935.13;;;24.95;51.34
3096;BME280;1558;42.700;23.360;2022-07-10T12:30:46;94981.06;;;25.34;50.99
3096;BME280;1558;42.700;23.360;2022-07-10T12:33:19;94944.59;;;25.10;50.49
3096;BME280;1558;42.700;23.360;2022-07-10T12:35:51;94956.91;;;25.06;50.77
3096;BME280;1558;42.700;23.360;2022-07-10T12:38:23;94991.44;;;25.14;49.48
3096;BME280;1558;42.700;23.360;2022-07-10T12:41:06;94967.91;;;24.77;49.00
3096;BME280;1558;42.700;23.360;2022-07-10T12:43:35;94991.78;;;24.83;50.01
3096;BME280;1558;42.700;23.360;2022-07-10T12:46:13;94963.88;;;24.62;49.84
3096;BME280;1558;42.700;23.360;2022-07-10T12:48:43;94956.56;;;24.71;50.21
3096;BME280;1558;42.700;23.360;2022-07-10T12:51:24;94955.72;;;25.07;49.47
3096;BME280;1558;42.700;23.360;2022-07-10T12:53:55;94997.47;;;25.41;49.21
3096;BME280;1558;42.700;23.360;2022-07-10T12:56:31;95000.56;;;25.43;48.49
3096;BME280;1558;42.700;23.360;2022-07-10T12:58:59;94999.78;;;25.42;48.08
3096;BME280;1558;42.700;23.360;2022-07-10T13:01:28;94901.03;;;24.69;48.53
3096;BME280;1558;42.700;23.360;2022-07-10T13:03:58;94977.75;;;25.39;48.81
3096;BME280;1558;42.700;23.360;2022-07-10T13:06:30;95004.75;;;25.64;49.41
3096;BME280;1558;42.700;23.360;2022-07-10T13:09:00;94914.13;;;25.14;49.61
3096;BME280;1558;42.700;23.360;2022-07-10T13:11:28;94951.44;;;25.50;50.00
3096;BME280;1558;42.700;23.360;2022-07-10T13:13:56;94998.56;;;25.88;49.22
3096;BME280;1558;42.700;23.360;2022-07-10T13:16:25;94984.84;;;25.56;50.53
3096;BME280;1558;42.700;23.360;2022-07-10T13:18:53;94968.09;;;25.47;48.11
3096;BME280;1558;42.700;23.360;2022-07-10T13:21:21;94993.06;;;26.01;48.97
3096;BME280;1558;42.700;23.360;2022-07-10T13:23:49;94985.94;;;26.95;46.68
3096;BME280;1558;42.700;23.360;2022-07-10T13:26:19;94924.16;;;27.20;42.17